Time;durP1;ratioP1;P1;durP2;ratioP2;P2;SDS_P1;SDS_P2;PMS_P1;PMS_P2;Temp;Humidity;BMP_temperature;BMP_pressure;BME280_temperature;BME280_humidity;BME280_pressure;Samples;Min_cycle;Max_cycle;Signal;HPM_P1;HPM_P2
2021/11/08 00:00:59;;;;;;;;;11.75;11.00;;;;;20.48;48.25;101478.94;4999846;28;1212502;-75
2021/11/08 00:03:29;;;;;;;;;14.25;11.50;;;;;20.50;48.44;101479.75;5043507;28;45417;-75
2021/11/08 00:05:54;;;;;;;;;9.50;8.00;;;;;20.49;48.06;101470.06;5060059;28;45256;-75
2021/11/08 00:08:21;;;;;;;;;11.25;9.75;;;;;20.48;48.18;101469.19;5026422;28;45270;-75
2021/11/08 00:10:47;;;;;;;;;11.00;10.00;;;;;20.47;48.15;101472.75;5060571;28;45334;-75
2021/11/08 00:13:12;;;;;;;;;10.25;9.50;;;;;20.45;48.54;101458.66;5059048;28;45328;-75
2021/11/08 00:21:20;;;;;;;;;11.00;10.75;;;;;20.42;48.50;101471.97;5061160;28;45363;-75
2021/11/08 00:23:46;;;;;;;;;13.25;12.00;;;;;20.40;48.65;101465.78;5060186;28;45522;-75
2021/11/08 00:26:11;;;;;;;;;12.25;9.75;;;;;20.40;48.60;101460.47;5060304;28;67157;-75
2021/11/08 00:28:36;;;;;;;;;12.75;10.75;;;;;20.39;48.24;101466.69;5061065;28;45334;-75
2021/11/08 00:31:02;;;;;;;;;12.00;10.00;;;;;20.40;48.05;101475.53;5059575;28;45241;-75
2021/11/08 00:33:27;;;;;;;;;12.50;11.50;;;;;20.40;48.17;101456.97;5059086;28;63564;-75
2021/11/08 00:36:00;;;;;;;;;14.25;11.75;;;;;20.40;48.31;101467.56;5042530;28;52542;-75
2021/11/08 00:38:25;;;;;;;;;12.75;11.50;;;;;20.41;47.71;101471.97;5026460;28;45363;-75
2021/11/08 00:40:51;;;;;;;;;11.75;10.00;;;;;20.38;47.86;101467.59;5059612;28;45336;-75
2021/11/08 00:43:18;;;;;;;;;12.75;9.25;;;;;20.38;47.91;101464.06;5059697;28;45704;-75
2021/11/08 00:45:43;;;;;;;;;10.50;8.50;;;;;20.39;48.17;101468.47;5025935;28;47158;-75
2021/11/08 00:48:09;;;;;;;;;10.00;9.25;;;;;20.37;47.64;101475.59;5059380;28;45318;-75
2021/11/08 00:50:35;;;;;;;;;17.50;13.00;;;;;20.37;48.48;101467.63;5042787;28;45257;-75
2021/11/08 00:53:01;;;;;;;;;15.00;9.75;;;;;20.37;48.01;101455.25;5022551;28;45468;-76
2021/11/08 00:55:28;;;;;;;;;9.75;9.75;;;;;20.39;47.92;101461.41;5073773;28;45908;-75
2021/11/08 00:57:57;;;;;;;;;11.75;11.75;;;;;20.38;47.70;101472.03;5026371;28;45341;-75
2021/11/08 01:00:26;;;;;;;;;12.75;11.00;;;;;20.36;47.94;101473.84;5042717;28;46300;-75
2021/11/08 01:02:51;;;;;;;;;12.75;12.25;;;;;20.35;48.28;101472.97;5042777;28;45678;-75
2021/11/08 01:05:17;;;;;;;;;12.25;11.25;;;;;20.36;48.28;101473.84;5042434;28;45405;-75
2021/11/08 01:07:42;;;;;;;;;11.00;9.50;;;;;20.35;48.05;101482.72;5058875;28;54944;-75
2021/11/08 01:10:09;;;;;;;;;12.25;8.75;;;;;20.33;48.29;101480.09;5059901;28;45396;-75
2021/11/08 01:12:35;;;;;;;;;13.25;9.50;;;;;20.30;48.34;101465.09;5059147;28;45565;-75
2021/11/08 01:15:01;;;;;;;;;12.00;11.50;;;;;20.31;48.24;101476.56;5042115;28;46036;-75
2021/11/08 01:17:26;;;;;;;;;15.75;12.25;;;;;20.29;48.13;101478.38;5058370;28;59747;-75
2021/11/08 01:20:00;;;;;;;;;13.75;11.00;;;;;20.26;48.44;101487.28;5058773;28;47596;-74
2021/11/08 01:22:29;;;;;;;;;12.25;10.75;;;;;20.24;48.54;101480.22;5059204;28;45213;-75
2021/11/08 01:24:55;;;;;;;;;11.25;10.50;;;;;20.23;48.71;101462.59;5058696;28;46053;-74
2021/11/08 01:27:40;;;;;;;;;13.75;11.75;;;;;20.25;48.63;101466.09;5042088;28;45780;-75
2021/11/08 01:30:09;;;;;;;;;12.50;11.00;;;;;20.23;48.66;101468.75;5060167;28;45232;-75
2021/11/08 01:32:34;;;;;;;;;12.75;10.00;;;;;20.23;48.77;101466.13;5058638;28;45407;-75
2021/11/08 01:35:00;;;;;;;;;14.50;11.50;;;;;20.24;48.69;101467.88;5025349;28;47973;-75
2021/11/08 01:37:27;;;;;;;;;11.50;11.00;;;;;20.24;48.73;101467.88;5041490;28;53946;-75
2021/11/08 01:39:53;;;;;;;;;16.75;14.75;;;;;20.25;48.56;101463.47;5042296;28;45406;-75
2021/11/08 01:42:18;;;;;;;;;12.00;10.00;;;;;20.24;48.61;101467.88;5041999;28;45340;-75
2021/11/08 01:44:44;;;;;;;;;10.00;9.50;;;;;20.22;48.51;101455.53;5058541;28;47484;-74
2021/11/08 01:47:09;;;;;;;;;12.25;10.75;;;;;20.23;48.64;101455.50;5058344;28;45277;-75
2021/11/08 01:49:35;;;;;;;;;12.50;12.25;;;;;20.23;48.97;101457.28;5058919;28;45168;-75
2021/11/08 01:52:01;;;;;;;;;12.00;12.00;;;;;20.22;48.38;101444.94;5058824;28;45484;-75
2021/11/08 01:54:26;;;;;;;;;14.25;12.00;;;;;20.24;48.61;101448.44;5055018;28;45500;-75
2021/11/08 01:56:53;;;;;;;;;9.50;8.50;;;;;20.23;47.88;101455.50;5054371;28;45445;-75
2021/11/08 01:59:19;;;;;;;;;10.00;9.00;;;;;20.21;48.22;101449.38;5041899;28;45293;-75
2021/11/08 02:01:44;;;;;;;;;14.25;11.00;;;;;20.22;48.36;101456.41;5041441;28;45381;-75
2021/11/08 02:04:10;;;;;;;;;14.25;11.00;;;;;20.20;48.35;101458.22;5058247;28;48277;-75
2021/11/08 02:06:36;;;;;;;;;11.50;10.00;;;;;20.22;47.81;101445.81;5041515;28;45337;-75
2021/11/08 02:09:02;;;;;;;;;11.00;8.00;;;;;20.23;47.89;101452.00;5058692;28;45297;-75
2021/11/08 02:11:27;;;;;;;;;14.75;10.50;;;;;20.22;48.04;101445.81;5041761;28;45296;-75
2021/11/08 02:13:53;;;;;;;;;11.25;11.25;;;;;20.22;48.24;101451.13;5041565;28;47091;-75
2021/11/08 02:16:19;;;;;;;;;10.25;9.00;;;;;20.21;47.63;101445.84;5058053;28;45305;-75
2021/11/08 02:18:45;;;;;;;;;10.75;10.75;;;;;20.21;48.52;101444.06;5024993;28;45266;-75
2021/11/08 02:21:12;;;;;;;;;13.25;10.50;;;;;20.20;48.38;101452.94;5058425;28;45243;-75
2021/11/08 02:23:38;;;;;;;;;13.75;11.00;;;;;20.19;48.51;101452.97;5058375;28;46139;-75
2021/11/08 02:26:07;;;;;;;;;12.50;10.00;;;;;20.17;48.47;101447.69;5041380;28;45325;-76
2021/11/08 02:28:32;;;;;;;;;12.00;10.25;;;;;20.16;48.25;101442.44;5041985;28;45281;-75
2021/11/08 02:30:58;;;;;;;;;13.75;11.00;;;;;20.15;48.55;101443.31;5041198;28;45245;-75
2021/11/08 02:33:26;;;;;;;;;10.50;10.50;;;;;20.14;48.32;101439.78;5024695;28;48203;-75
2021/11/08 02:35:53;;;;;;;;;11.00;10.00;;;;;20.14;48.40;101441.56;5042397;28;45447;-75
2021/11/08 02:38:23;;;;;;;;;10.75;9.50;;;;;20.13;48.35;101442.47;5061533;28;45347;-75
2021/11/08 02:40:48;;;;;;;;;13.00;9.50;;;;;20.12;48.58;101444.25;5062699;28;45162;-75
2021/11/08 02:43:20;;;;;;;;;10.75;9.25;;;;;20.10;48.68;101443.41;5061031;28;58931;-75
2021/11/08 02:45:47;;;;;;;;;9.75;9.75;;;;;20.10;48.79;101446.06;5029356;28;45428;-75
2021/11/08 02:48:12;;;;;;;;;8.50;8.50;;;;;20.04;48.80;101432.91;5062922;28;45281;-76
2021/11/08 02:50:38;;;;;;;;;12.75;11.25;;;;;20.09;48.70;101443.44;5027821;28;45254;-75
2021/11/08 02:53:03;;;;;;;;;9.50;8.25;;;;;20.08;48.80;101439.94;5044437;28;45998;-75
2021/11/08 02:55:29;;;;;;;;;12.50;11.00;;;;;20.08;48.94;101434.63;5044499;28;45305;-75
2021/11/08 02:57:55;;;;;;;;;9.75;5.00;;;;;20.07;49.03;101440.84;5044579;28;45566;-75
2021/11/08 03:00:21;;;;;;;;;8.75;8.25;;;;;20.09;49.05;101441.66;5044066;28;45264;-75
2021/11/08 03:02:48;;;;;;;;;9.25;9.00;;;;;20.07;48.58;101445.22;5027506;28;46481;-75
2021/11/08 03:05:15;;;;;;;;;14.75;12.00;;;;;20.06;48.40;101439.06;5060947;28;45421;-75
2021/11/08 03:07:43;;;;;;;;;11.25;10.25;;;;;20.06;48.51;101441.69;5061300;28;45421;-75
2021/11/08 03:10:13;;;;;;;;;10.00;10.00;;;;;20.06;48.47;101447.00;5062370;28;45237;-75
2021/11/08 03:12:40;;;;;;;;;9.00;8.50;;;;;20.05;48.48;101448.78;5061087;28;45461;-75
2021/11/08 03:15:09;;;;;;;;;10.00;9.50;;;;;20.05;48.19;101445.25;5027403;28;45867;-75
2021/11/08 03:17:41;;;;;;;;;13.00;9.25;;;;;20.04;48.15;101452.34;5062109;28;45243;-75
2021/11/08 03:20:10;;;;;;;;;9.25;8.75;;;;;20.02;48.19;101448.84;5045217;28;45421;-75
2021/11/08 03:22:36;;;;;;;;;5.00;5.00;;;;;20.04;47.87;101451.47;5060961;28;46094;-75
2021/11/08 03:25:57;;;;;;;;;9.25;8.00;;;;;20.02;48.06;101447.97;5027518;28;45338;-75
2021/11/08 03:27:55;;;;;;;;;9.00;9.00;;;;;20.03;48.03;101449.72;5043441;28;45380;-75
2021/11/08 03:30:24;;;;;;;;;12.50;10.25;;;;;20.03;47.74;101455.91;5045072;28;45436;-75
2021/11/08 03:32:50;;;;;;;;;11.50;8.00;;;;;20.01;48.10;101451.53;5043984;28;46092;-75
2021/11/08 03:35:18;;;;;;;;;9.50;8.25;;;;;20.01;47.79;101460.34;5043846;28;45368;-75
2021/11/08 03:37:45;;;;;;;;;10.00;8.00;;;;;20.00;47.99;101458.59;5027877;28;45445;-75
2021/11/08 03:40:13;;;;;;;;;6.25;6.25;;;;;20.01;47.80;101467.44;5060641;28;45225;-75
2021/11/08 03:42:38;;;;;;;;;10.75;10.50;;;;;19.97;48.18;101457.78;5027030;28;47229;-75
2021/11/08 03:45:04;;;;;;;;;9.00;8.50;;;;;19.99;48.29;101453.34;5043547;28;45449;-75
2021/11/08 03:47:30;;;;;;;;;7.75;7.75;;;;;19.98;48.07;101451.56;5058960;28;45539;-75
2021/11/08 03:49:55;;;;;;;;;7.25;7.25;;;;;19.98;48.31;101456.88;5043789;28;45316;-75
2021/11/08 03:52:21;;;;;;;;;10.00;9.00;;;;;19.97;48.30;101453.34;5060181;28;46127;-75
2021/11/08 03:54:47;;;;;;;;;9.25;7.75;;;;;19.99;48.49;101456.00;5056920;28;45732;-75
2021/11/08 03:57:12;;;;;;;;;8.25;7.00;;;;;19.97;48.54;101452.47;5042324;28;45500;-75
2021/11/08 03:59:37;;;;;;;;;8.25;8.00;;;;;19.98;48.36;101446.28;5042692;28;61926;-75
2021/11/08 04:02:03;;;;;;;;;10.25;9.00;;;;;19.97;48.55;101449.81;5060591;28;60718;-75
2021/11/08 04:04:28;;;;;;;;;7.50;5.75;;;;;19.98;48.57;101448.91;5060240;28;45259;-75
2021/11/08 04:06:54;;;;;;;;;13.00;10.00;;;;;19.97;48.53;101431.28;5060207;28;45288;-75
2021/11/08 04:09:20;;;;;;;;;8.50;7.50;;;;;19.98;48.54;101439.22;5043609;28;45344;-75
2021/11/08 04:11:45;;;;;;;;;10.50;8.50;;;;;19.98;48.08;101436.56;5059917;28;46065;-75
2021/11/08 04:14:11;;;;;;;;;12.50;10.00;;;;;19.97;48.18;101444.53;5060210;28;45202;-75
2021/11/08 04:16:39;;;;;;;;;11.75;9.75;;;;;19.96;48.37;101445.44;5026540;28;45355;-75
2021/11/08 04:19:04;;;;;;;;;9.00;9.00;;;;;19.95;48.48;101449.00;5026973;28;45600;-75
2021/11/08 04:21:32;;;;;;;;;11.50;9.00;;;;;19.94;48.62;101452.53;5059810;28;46042;-75
2021/11/08 04:23:58;;;;;;;;;13.50;10.50;;;;;19.94;48.29;101450.75;5043843;28;45322;-75
2021/11/08 04:26:27;;;;;;;;;11.00;10.25;;;;;19.94;48.03;101450.75;5042409;28;58528;-75
2021/11/08 04:28:55;;;;;;;;;8.50;8.25;;;;;19.93;47.83;101450.78;5043719;28;45356;-75
2021/11/08 04:31:21;;;;;;;;;11.00;9.25;;;;;19.93;47.95;101456.09;5042939;28;45429;-75
2021/11/08 04:33:54;;;;;;;;;12.75;9.25;;;;;19.92;48.13;101452.56;5026684;28;45964;-75
2021/11/08 04:36:40;;;;;;;;;8.75;7.00;;;;;19.92;47.82;101454.34;5015576;28;45325;-75
2021/11/08 04:49:58;;;;;;;;;10.00;10.00;;;;;19.94;47.80;101465.78;5048896;28;45300;-75
2021/11/08 04:52:37;;;;;;;;;9.50;8.50;;;;;19.94;47.91;101466.66;5059130;28;45945;-75
2021/11/08 05:30:09;;;;;;;;;10.50;9.25;;;;;19.91;48.50;101460.56;5045150;28;45427;-75
2021/11/08 05:32:37;;;;;;;;;12.00;8.75;;;;;19.91;48.50;101468.50;5041866;28;45663;-76
2021/11/08 05:35:04;;;;;;;;;9.75;8.75;;;;;19.92;48.21;101460.53;5042246;28;47263;-76
2021/11/08 05:37:29;;;;;;;;;7.75;7.00;;;;;19.94;48.34;101464.00;5042083;28;45324;-76
2021/11/08 05:39:58;;;;;;;;;13.75;10.75;;;;;19.93;48.57;101470.22;5058869;28;45273;-76
2021/11/08 05:42:24;;;;;;;;;10.75;8.00;;;;;19.94;48.45;101466.66;5042325;28;45341;-76
2021/11/08 05:44:49;;;;;;;;;11.75;8.75;;;;;19.94;48.02;101471.09;5027662;28;47485;-75
2021/11/08 05:47:15;;;;;;;;;11.50;10.50;;;;;19.96;47.86;101477.22;5041673;28;45375;-76
2021/11/08 05:49:42;;;;;;;;;10.50;9.75;;;;;19.96;47.65;101485.19;5025548;28;45412;-75
2021/11/08 05:52:07;;;;;;;;;10.50;10.00;;;;;19.95;47.65;101480.78;5055330;28;45175;-73
2021/11/08 05:54:33;;;;;;;;;12.00;9.75;;;;;19.95;47.61;101486.94;5041653;28;45659;-74
2021/11/08 06:51:19;;;;;;;;;21.75;20.50;;;;;21.57;50.68;101534.09;5061729;28;45350;-72
2021/11/08 06:53:47;;;;;;;;;23.00;22.25;;;;;21.59;50.85;101542.03;5044678;28;45261;-75
2021/11/08 06:56:12;;;;;;;;;20.75;19.25;;;;;21.59;50.89;101540.22;5044774;28;45558;-72
2021/11/08 06:58:39;;;;;;;;;23.25;21.50;;;;;21.61;50.97;101540.19;5044177;28;45682;-74
2021/11/08 07:01:04;;;;;;;;;23.50;18.25;;;;;21.61;51.12;101537.53;5043849;28;46349;-72
2021/11/08 07:03:30;;;;;;;;;21.00;19.50;;;;;21.61;51.20;101543.72;5044268;28;45438;-73
2021/11/08 07:05:55;;;;;;;;;21.00;19.00;;;;;21.62;51.16;101544.59;5043740;28;56880;-74
2021/11/08 07:08:20;;;;;;;;;20.50;16.50;;;;;21.61;50.94;101545.50;5059966;28;64969;-74
2021/11/08 07:10:46;;;;;;;;;19.00;16.50;;;;;21.63;51.21;101556.97;5027521;28;45257;-74
2021/11/08 07:13:11;;;;;;;;;17.50;16.75;;;;;21.63;50.91;101549.00;5043922;28;46892;-74
2021/11/08 07:15:37;;;;;;;;;19.25;18.00;;;;;21.62;50.61;101548.13;5027148;28;45286;-72
2021/11/08 07:18:02;;;;;;;;;17.25;16.75;;;;;21.63;50.49;101554.31;5060773;28;45328;-74
2021/11/08 07:20:28;;;;;;;;;17.50;17.00;;;;;21.64;50.31;101559.59;5043911;28;45339;-74
2021/11/08 07:22:54;;;;;;;;;19.25;18.50;;;;;21.64;50.66;101553.44;5043744;28;45296;-74
2021/11/08 07:25:19;;;;;;;;;17.00;14.00;;;;;21.63;50.54;101559.63;5060841;28;45221;-74
2021/11/08 07:27:45;;;;;;;;;22.25;18.00;;;;;21.65;50.66;101557.81;5027117;28;47690;-74
2021/11/08 07:30:11;;;;;;;;;23.75;18.50;;;;;21.64;50.32;101561.41;5044037;28;45350;-74
2021/11/08 07:32:36;;;;;;;;;20.75;17.00;;;;;21.63;50.23;101565.84;5032501;28;45463;-72
2021/11/08 07:35:02;;;;;;;;;18.75;17.00;;;;;21.62;50.27;101564.06;5030479;28;45449;-74
2021/11/08 07:37:28;;;;;;;;;18.00;15.00;;;;;21.63;50.37;101565.84;5026744;28;46309;-73
2021/11/08 07:39:56;;;;;;;;;20.50;18.00;;;;;21.63;50.48;101568.50;5015818;28;45468;-76
2021/11/08 07:42:21;;;;;;;;;20.50;18.50;;;;;21.63;49.80;101576.47;5023113;28;45416;-72
2021/11/08 07:44:47;;;;;;;;;20.50;16.75;;;;;21.63;49.71;101578.22;5025071;28;45503;-72
2021/11/08 07:47:13;;;;;;;;;17.75;16.25;;;;;21.63;49.53;101579.13;5058750;28;45339;-71
2021/11/08 07:49:38;;;;;;;;;19.75;18.00;;;;;21.63;49.93;101580.88;5060529;28;45387;-72
2021/11/08 07:52:04;;;;;;;;;19.25;16.00;;;;;21.63;49.58;101575.56;5065033;28;45697;-73
2021/11/08 07:54:31;;;;;;;;;20.25;17.75;;;;;21.62;49.39;101577.34;5025591;28;45911;-72
2021/11/08 07:56:57;;;;;;;;;18.00;14.00;;;;;21.63;49.81;101575.56;5060175;28;45527;-71
2021/11/08 07:59:23;;;;;;;;;23.25;19.75;;;;;21.63;49.28;101579.13;5059842;28;45472;-72
2021/11/08 08:01:48;;;;;;;;;16.25;15.25;;;;;21.63;49.14;101575.56;5022494;28;45306;-72
2021/11/08 08:04:14;;;;;;;;;19.00;18.50;;;;;21.64;49.11;101594.16;5025114;28;45601;-71
2021/11/08 08:06:40;;;;;;;;;16.25;16.00;;;;;21.63;49.44;101581.78;5041336;28;45501;-71
2021/11/08 08:09:06;;;;;;;;;20.25;16.25;;;;;21.65;49.29;101584.38;5030901;28;45580;-71
2021/11/08 08:11:31;;;;;;;;;21.00;19.75;;;;;21.64;48.79;101586.19;5031739;28;45321;-72
2021/11/08 08:13:57;;;;;;;;;12.50;12.25;;;;;21.65;48.63;101592.34;5029273;28;45475;-72
2021/11/08 08:16:22;;;;;;;;;23.75;19.25;;;;;21.65;48.69;101590.56;5040881;28;47004;-72
2021/11/08 08:18:54;;;;;;;;;19.50;18.25;;;;;21.66;48.90;101597.63;5045537;28;45622;-73
2021/11/08 08:21:20;;;;;;;;;24.75;20.50;;;;;21.68;48.86;101590.50;5043515;28;45523;-71
2021/11/08 08:23:48;;;;;;;;;22.00;20.25;;;;;21.70;48.63;101598.41;5042392;28;45535;-71
2021/11/08 08:26:14;;;;;;;;;18.00;15.50;;;;;21.70;49.17;101596.63;5041979;28;46068;-72
2021/11/08 08:28:39;;;;;;;;;21.75;19.25;;;;;21.72;49.09;101593.97;5041590;28;45230;-72
2021/11/08 08:31:05;;;;;;;;;25.25;16.50;;;;;21.74;48.99;101594.81;5041802;28;45375;-71
2021/11/08 08:33:31;;;;;;;;;25.50;18.00;;;;;21.77;48.93;101600.03;5040763;28;45250;-71
2021/11/08 08:35:57;;;;;;;;;21.50;18.75;;;;;21.81;49.48;101595.53;5041842;28;46424;-71
2021/11/08 08:38:22;;;;;;;;;16.50;14.25;;;;;21.83;49.14;101602.56;5041348;28;45383;-70
2021/11/08 08:40:49;;;;;;;;;19.00;17.50;;;;;21.84;49.24;101604.31;5061017;28;45328;-72
2021/11/08 08:43:14;;;;;;;;;21.25;16.25;;;;;21.86;49.06;101605.13;5056790;28;45459;-71
2021/11/08 08:45:40;;;;;;;;;21.25;14.00;;;;;21.85;49.31;101598.06;5049756;28;47404;-71
2021/11/08 08:48:06;;;;;;;;;18.75;16.50;;;;;21.91;49.03;101608.56;5042976;28;45274;-70
2021/11/08 08:50:31;;;;;;;;;20.00;17.25;;;;;21.93;49.31;101611.19;5042333;28;45441;-71
2021/11/08 08:52:57;;;;;;;;;21.75;17.50;;;;;21.93;49.10;101612.06;5058911;28;45535;-70
2021/11/08 08:55:23;;;;;;;;;21.50;16.00;;;;;21.95;49.42;101607.56;5041736;28;52067;-70
2021/11/08 08:57:48;;;;;;;;;17.75;14.25;;;;;21.97;49.13;101611.06;5058243;28;45462;-71
2021/11/08 09:00:16;;;;;;;;;17.50;17.00;;;;;21.98;49.26;101609.31;5040593;28;45424;-70
2021/11/08 09:02:41;;;;;;;;;20.50;18.25;;;;;22.00;48.78;101616.31;5055174;28;45543;-72
2021/11/08 09:05:07;;;;;;;;;24.25;18.75;;;;;22.00;48.89;101610.13;5036057;28;47561;-72
2021/11/08 09:07:34;;;;;;;;;22.25;18.00;;;;;22.02;48.96;101611.81;5029834;28;45792;-72
2021/11/08 09:09:59;;;;;;;;;18.50;16.25;;;;;22.03;48.88;101615.34;5057833;28;45354;-72
2021/11/08 09:12:24;;;;;;;;;19.75;16.25;;;;;22.04;48.94;101613.56;5042017;28;45253;-72
2021/11/08 09:14:50;;;;;;;;;20.25;19.75;;;;;22.06;48.62;101617.06;5040172;28;46337;-72
2021/11/08 09:17:15;;;;;;;;;18.00;15.00;;;;;22.08;48.56;101610.84;5022872;28;45819;-72
2021/11/08 09:19:41;;;;;;;;;18.50;15.75;;;;;22.08;47.37;101610.84;5041796;28;45478;-72
2021/11/08 09:22:08;;;;;;;;;20.00;17.25;;;;;22.01;47.14;101620.72;5042259;28;45424;-73
2021/11/08 09:24:34;;;;;;;;;18.00;15.00;;;;;21.92;46.10;101618.28;5039462;28;45548;-73
2021/11/08 09:27:01;;;;;;;;;17.75;13.00;;;;;21.83;46.22;101610.53;5039739;28;45529;-72
2021/11/08 09:29:26;;;;;;;;;13.50;12.25;;;;;21.75;46.27;101611.63;5023905;28;45728;-73
2021/11/08 09:31:51;;;;;;;;;15.00;12.00;;;;;21.69;45.50;101610.84;5041248;28;45635;-72
2021/11/08 09:34:21;;;;;;;;;13.00;12.75;;;;;21.65;45.71;101616.28;5058527;28;45462;-72
2021/11/08 09:36:47;;;;;;;;;16.50;11.75;;;;;21.62;45.10;101618.97;5045175;28;45308;-71
2021/11/08 09:39:26;;;;;;;;;14.25;13.00;;;;;21.60;44.89;101611.03;5041614;28;45321;-72
2021/11/08 09:41:57;;;;;;;;;13.75;12.75;;;;;21.61;44.95;101610.13;5055355;28;45544;-71
2021/11/08 09:44:23;;;;;;;;;14.00;10.75;;;;;21.61;44.62;101620.75;5057240;28;45275;-71
2021/11/08 09:46:51;;;;;;;;;15.75;12.75;;;;;21.61;44.74;101617.22;5026746;28;45787;-71
2021/11/08 09:49:16;;;;;;;;;18.75;14.00;;;;;21.59;43.82;101619.94;5028588;28;45342;-72
2021/11/08 09:51:43;;;;;;;;;18.75;14.75;;;;;21.59;44.17;101616.41;5027806;28;45522;-72
2021/11/08 09:54:10;;;;;;;;;17.75;13.50;;;;;21.58;44.12;101610.22;5041653;28;47079;-73
2021/11/08 09:56:36;;;;;;;;;16.50;15.50;;;;;21.60;44.29;101604.88;5042716;28;45454;-72
2021/11/08 09:59:02;;;;;;;;;22.00;16.25;;;;;21.62;44.02;101608.34;5026547;28;45432;-73
2021/11/08 10:01:28;;;;;;;;;21.75;16.50;;;;;21.63;43.53;101607.44;5043558;28;45498;-73
2021/11/08 10:03:55;;;;;;;;;16.75;11.50;;;;;21.63;43.09;101613.66;5041193;28;46206;-72
2021/11/08 10:06:21;;;;;;;;;18.25;14.00;;;;;21.64;43.99;101606.56;5028286;28;45515;-73
2021/11/08 10:08:48;;;;;;;;;15.75;13.50;;;;;21.64;43.65;101603.91;5045635;28;45457;-73
2021/11/08 10:11:15;;;;;;;;;20.75;16.75;;;;;21.66;43.69;101604.72;5055914;28;45347;-72
2021/11/08 10:13:41;;;;;;;;;17.25;15.25;;;;;21.66;43.23;101602.06;5044410;28;47583;-72
2021/11/08 10:16:12;;;;;;;;;15.50;13.25;;;;;21.67;43.63;101603.81;5044672;28;45430;-74
2021/11/08 10:18:38;;;;;;;;;17.25;14.00;;;;;21.66;43.17;101604.72;5062419;28;45482;-74
2021/11/08 10:21:12;;;;;;;;;14.25;13.25;;;;;21.65;43.28;101600.34;5044373;28;45482;-73
2021/11/08 10:23:40;;;;;;;;;15.25;13.00;;;;;21.66;43.40;101602.06;5044116;28;46775;-72
2021/11/08 10:26:13;;;;;;;;;10.75;8.50;;;;;21.66;43.13;101602.06;5044960;28;45331;-72
2021/11/08 10:28:39;;;;;;;;;13.75;11.00;;;;;21.63;42.58;101603.03;5028437;28;45475;-72
2021/11/08 10:31:15;;;;;;;;;17.50;9.75;;;;;21.63;42.29;101602.13;5043711;28;45586;-72
2021/11/08 10:33:40;;;;;;;;;10.00;8.50;;;;;21.60;42.07;101602.22;5060608;28;47102;-72
2021/11/08 10:36:11;;;;;;;;;13.00;10.75;;;;;21.61;42.96;101611.91;5060691;28;45375;-72
2021/11/08 10:38:37;;;;;;;;;9.50;8.25;;;;;21.60;41.85;101607.53;5027443;28;45598;-73
2021/11/08 10:41:23;;;;;;;;;14.25;10.50;;;;;21.57;42.29;101600.50;5056170;28;46383;-74
2021/11/08 10:43:54;;;;;;;;;9.00;9.00;;;;;21.57;42.02;101604.94;5059427;28;45970;-74
2021/11/08 10:46:21;;;;;;;;;10.50;8.75;;;;;21.57;41.95;101604.94;5041896;28;45649;-74
2021/11/08 10:48:57;;;;;;;;;11.25;9.00;;;;;21.58;41.97;101604.03;5062541;28;45197;-72
2021/11/08 10:51:24;;;;;;;;;12.00;9.00;;;;;21.56;41.81;101601.41;5025058;28;45904;-72
2021/11/08 10:53:54;;;;;;;;;10.50;9.25;;;;;21.56;41.60;101595.22;5060731;28;45390;-72
2021/11/08 10:56:34;;;;;;;;;7.50;5.00;;;;;21.57;41.47;101600.50;5042997;28;45752;-71
2021/11/08 10:59:01;;;;;;;;;10.75;8.50;;;;;21.59;41.46;101596.03;5032185;28;45513;-71
2021/11/08 11:01:35;;;;;;;;;12.25;11.00;;;;;21.60;41.38;101602.22;5026978;28;45481;-72
2021/11/08 11:04:03;;;;;;;;;8.75;6.25;;;;;21.59;41.52;101595.16;5026511;28;46933;-72
2021/11/08 11:06:39;;;;;;;;;6.00;5.50;;;;;21.59;41.05;101593.38;5043925;28;45262;-72
2021/11/08 11:09:16;;;;;;;;;7.50;6.00;;;;;21.60;40.98;101592.44;5060905;28;45299;-72
2021/11/08 11:11:42;;;;;;;;;7.00;6.50;;;;;21.61;41.27;101595.97;5057162;28;45194;-72
2021/11/08 11:14:07;;;;;;;;;8.75;6.75;;;;;21.62;40.99;101595.06;5027331;28;46947;-72
2021/11/08 11:16:38;;;;;;;;;8.75;6.75;;;;;21.62;40.47;101595.06;5026974;28;45499;-72
2021/11/08 11:19:09;;;;;;;;;7.75;5.00;;;;;21.60;40.69;101594.22;5043748;28;45257;-73
2021/11/08 11:21:35;;;;;;;;;7.25;5.00;;;;;21.57;40.38;101591.66;5058962;28;45915;-72
2021/11/08 11:24:03;;;;;;;;;9.25;6.50;;;;;21.58;41.19;101593.41;5043780;28;48404;-72
2021/11/08 11:26:31;;;;;;;;;9.50;8.75;;;;;21.58;40.88;101594.28;5060594;28;45384;-72
2021/11/08 11:28:57;;;;;;;;;9.50;8.25;;;;;21.54;40.42;101589.91;5027786;28;45237;-72
2021/11/08 11:31:24;;;;;;;;;7.25;7.25;;;;;21.52;40.38;101586.44;5043284;28;45606;-72
2021/11/08 11:33:52;;;;;;;;;7.25;5.50;;;;;21.48;40.48;101576.81;5043636;28;45400;-71
2021/11/08 11:36:18;;;;;;;;;9.25;7.00;;;;;21.44;40.80;101577.75;5027706;28;45376;-72
2021/11/08 11:38:50;;;;;;;;;11.50;7.00;;;;;21.45;40.33;101584.81;5043682;28;45210;-72
2021/11/08 11:41:24;;;;;;;;;7.00;7.00;;;;;21.41;40.06;101575.19;5029143;28;45696;-71
2021/11/08 11:44:05;;;;;;;;;9.75;6.00;;;;;21.40;40.53;101571.66;5039246;28;47667;-71
2021/11/08 11:46:34;;;;;;;;;8.75;5.25;;;;;21.40;40.18;101574.31;5027042;28;45936;-72
2021/11/08 11:49:03;;;;;;;;;7.00;5.75;;;;;21.38;40.49;101572.63;5044986;28;45377;-73
2021/11/08 11:51:34;;;;;;;;;8.25;6.00;;;;;21.36;40.07;101561.13;5028684;28;45875;-71
2021/11/08 11:53:59;;;;;;;;;6.00;6.00;;;;;21.34;39.91;101557.63;5042735;28;47088;-73
2021/11/08 11:56:28;;;;;;;;;6.75;6.75;;;;;21.30;40.30;101556.84;5062280;28;45376;-71
2021/11/08 11:58:54;;;;;;;;;8.25;5.00;;;;;21.29;40.07;101551.56;5045105;28;45449;-73
2021/11/08 12:01:22;;;;;;;;;5.25;5.25;;;;;21.29;40.29;101555.09;5042952;28;45241;-73
2021/11/08 12:03:47;;;;;;;;;6.50;6.25;;;;;21.29;39.91;101551.56;5043814;28;45378;-71
2021/11/08 12:06:16;;;;;;;;;5.75;5.00;;;;;21.30;39.92;101550.66;5060079;28;45344;-72
2021/11/08 12:08:42;;;;;;;;;3.75;3.75;;;;;21.30;39.92;101561.28;5060586;28;45333;-72
2021/11/08 12:11:08;;;;;;;;;5.75;4.00;;;;;21.31;39.70;101545.31;5043485;28;45483;-72
2021/11/08 12:13:40;;;;;;;;;5.00;5.00;;;;;21.31;39.66;101547.09;5023294;28;46315;-72
2021/11/08 12:16:28;;;;;;;;;9.25;6.00;;;;;21.32;40.32;101541.75;5027578;28;45411;-72
2021/11/08 12:18:56;;;;;;;;;5.00;3.50;;;;;21.31;39.42;101542.66;5060044;28;45465;-72
2021/11/08 12:21:33;;;;;;;;;9.00;6.00;;;;;21.31;39.43;101540.00;5042835;28;45274;-73
2021/11/08 12:23:59;;;;;;;;;7.00;5.25;;;;;21.34;39.97;101544.34;5043486;28;45474;-74
2021/11/08 12:26:27;;;;;;;;;10.75;6.75;;;;;21.36;40.77;101531.91;5042686;28;45380;-71
2021/11/08 12:29:15;;;;;;;;;7.25;6.00;;;;;21.41;41.43;101538.88;5026838;28;45386;-74
2021/11/08 12:31:40;;;;;;;;;25.25;21.75;;;;;21.46;42.77;101538.78;5059143;28;45477;-76
2021/11/08 12:34:16;;;;;;;;;14.75;11.25;;;;;21.52;42.15;101546.59;5026089;28;47340;-78
2021/11/08 12:36:57;;;;;;;;;10.00;9.50;;;;;21.60;43.00;101539.31;5043031;28;45499;-74
2021/11/08 12:39:22;;;;;;;;;11.50;9.00;;;;;21.71;42.97;101528.44;5044206;28;45320;-74
2021/11/08 12:41:48;;;;;;;;;9.50;7.50;;;;;21.77;42.46;101520.31;5038212;28;45443;-74
2021/11/08 12:44:21;;;;;;;;;11.00;8.75;;;;;21.87;42.22;101519.16;5058865;28;45924;-74
2021/11/08 12:46:53;;;;;;;;;11.50;9.00;;;;;21.92;42.49;101522.59;5042261;28;45339;-75
2021/11/08 12:49:29;;;;;;;;;12.75;9.00;;;;;21.96;42.27;101510.97;5059513;28;45399;-72
2021/11/08 12:51:59;;;;;;;;;9.25;9.25;;;;;21.99;42.38;101510.03;5043677;28;45776;-73
2021/11/08 12:54:26;;;;;;;;;10.00;9.50;;;;;22.00;42.62;101507.34;5060734;28;46564;-71
2021/11/08 12:56:51;;;;;;;;;8.25;8.25;;;;;22.02;42.10;101508.16;5059819;28;45385;-72
2021/11/08 12:59:25;;;;;;;;;7.75;5.75;;;;;22.02;41.78;101509.94;5060009;28;45586;-72
2021/11/08 13:01:55;;;;;;;;;9.00;6.00;;;;;21.99;41.39;101499.41;5058937;28;45334;-73